Time;durP1;ratioP1;P1;durP2;ratioP2;P2;SDS_P1;SDS_P2;PMS_P1;PMS_P2;Temp;Humidity;BMP_temperature;BMP_pressure;BME280_temperature;BME280_humidity;BME280_pressure;Samples;Min_cycle;Max_cycle;Signal;HPM_P1;HPM_P2
2024/01/02 00:00:08;;;;;;;2.10;0.88;;;8.40;99.90;;;;;;5006118;28;20475;-46
2024/01/02 00:02:42;;;;;;;1.80;0.70;;;8.50;99.90;;;;;;5007907;28;20308;-47
2024/01/02 00:05:10;;;;;;;1.80;0.85;;;8.40;99.90;;;;;;5009010;28;20450;-46
2024/01/02 00:07:39;;;;;;;1.50;0.70;;;8.40;99.90;;;;;;5006501;28;20280;-47
2024/01/02 00:10:08;;;;;;;1.30;0.63;;;8.50;99.90;;;;;;5009246;28;20456;-48
2024/01/02 00:12:38;;;;;;;1.73;0.73;;;8.50;99.90;;;;;;5007889;28;20504;-52
2024/01/02 00:15:07;;;;;;;1.90;0.87;;;8.50;99.90;;;;;;5007465;28;20810;-49
2024/01/02 00:17:36;;;;;;;1.40;0.70;;;8.50;99.90;;;;;;5007961;28;20751;-47
2024/01/02 00:20:06;;;;;;;1.55;1.05;;;8.50;99.90;;;;;;5008871;28;20529;-46
2024/01/02 00:22:34;;;;;;;2.20;0.90;;;8.50;99.90;;;;;;5000481;28;20316;-47
2024/01/02 00:25:03;;;;;;;2.20;1.03;;;8.40;99.90;;;;;;5008742;28;20494;-49
2024/01/02 00:27:31;;;;;;;1.63;0.83;;;8.40;99.90;;;;;;5007063;28;20578;-49
2024/01/02 00:30:00;;;;;;;1.97;0.77;;;8.50;99.90;;;;;;5017477;28;20473;-49
2024/01/02 00:32:29;;;;;;;1.85;0.85;;;8.40;99.90;;;;;;5007117;28;20523;-46
2024/01/02 00:34:58;;;;;;;2.30;0.50;;;8.40;99.90;;;;;;5008784;28;20740;-48
2024/01/02 00:37:26;;;;;;;1.70;0.83;;;8.40;99.90;;;;;;5002045;28;20485;-46
2024/01/02 00:39:54;;;;;;;1.50;0.83;;;8.40;99.90;;;;;;5008147;28;20462;-48
2024/01/02 00:42:22;;;;;;;1.60;0.70;;;8.40;99.90;;;;;;5007076;28;20832;-50
2024/01/02 00:44:50;;;;;;;3.10;0.93;;;8.40;99.90;;;;;;5005824;28;20455;-47
2024/01/02 00:47:21;;;;;;;1.60;1.00;;;8.40;99.90;;;;;;5007271;28;20841;-50
2024/01/02 00:49:49;;;;;;;1.77;0.87;;;8.40;99.90;;;;;;5010076;28;20440;-48
2024/01/02 00:52:17;;;;;;;1.40;0.70;;;8.40;99.90;;;;;;5005496;28;20469;-48
2024/01/02 00:54:46;;;;;;;1.97;0.87;;;8.40;99.90;;;;;;5008339;28;20775;-48
2024/01/02 00:57:14;;;;;;;1.30;0.67;;;8.40;99.90;;;;;;5004727;28;20494;-49
2024/01/02 00:59:42;;;;;;;1.60;0.67;;;8.40;99.90;;;;;;5004544;28;20465;-46
2024/01/02 01:02:10;;;;;;;1.70;0.70;;;8.50;99.90;;;;;;5007925;28;20472;-48
2024/01/02 01:04:43;;;;;;;3.00;0.90;;;8.40;99.90;;;;;;5009196;28;20431;-45
2024/01/02 01:07:11;;;;;;;2.63;0.90;;;8.40;99.90;;;;;;5007830;28;20477;-47
2024/01/02 01:09:39;;;;;;;1.38;0.70;;;8.40;99.90;;;;;;5005659;28;20593;-50
2024/01/02 01:12:08;;;;;;;1.50;0.70;;;8.40;99.90;;;;;;5007789;28;20224;-46
2024/01/02 01:14:37;;;;;;;1.33;0.50;;;8.40;99.90;;;;;;5004954;28;20453;-49
2024/01/02 01:17:06;;;;;;;1.30;0.60;;;8.40;99.90;;;;;;5007912;28;20465;-47
2024/01/02 01:19:35;;;;;;;1.30;0.70;;;8.40;99.90;;;;;;5007942;28;20439;-48
2024/01/02 01:22:04;;;;;;;1.23;0.67;;;8.40;99.90;;;;;;5010385;28;20514;-50
2024/01/02 01:24:32;;;;;;;1.63;0.70;;;8.40;99.90;;;;;;5004634;28;20503;-45
2024/01/02 01:27:00;;;;;;;1.70;0.60;;;8.40;99.90;;;;;;5002794;28;20311;-48
2024/01/02 01:29:29;;;;;;;2.20;0.60;;;8.40;99.90;;;;;;5005489;28;20276;-46
2024/01/02 01:31:57;;;;;;;2.30;0.57;;;8.40;99.90;;;;;;5007754;28;20273;-47
2024/01/02 01:34:25;;;;;;;1.23;0.50;;;8.40;99.90;;;;;;5009744;28;20444;-45
2024/01/02 01:36:54;;;;;;;2.20;0.73;;;8.40;99.90;;;;;;5008484;28;20470;-49
2024/01/02 01:39:23;;;;;;;3.53;0.80;;;8.40;99.90;;;;;;5007961;28;20833;-46
2024/01/02 01:41:52;;;;;;;3.10;0.87;;;8.40;99.90;;;;;;5009547;28;20526;-47
2024/01/02 01:44:20;;;;;;;1.40;0.50;;;8.40;99.90;;;;;;5007400;28;20456;-47
2024/01/02 01:46:48;;;;;;;1.75;0.52;;;8.40;99.90;;;;;;5007376;28;20518;-49
2024/01/02 01:49:17;;;;;;;1.30;0.60;;;8.40;99.90;;;;;;5009752;28;20209;-46
2024/01/02 01:51:47;;;;;;;1.30;0.47;;;8.40;99.90;;;;;;5007132;28;20464;-47
2024/01/02 01:54:17;;;;;;;1.30;0.60;;;8.40;99.90;;;;;;5011245;28;20425;-47
2024/01/02 01:56:47;;;;;;;1.10;0.53;;;8.40;99.90;;;;;;5009137;28;20546;-49
2024/01/02 01:59:16;;;;;;;1.87;0.70;;;8.40;99.90;;;;;;5003880;28;20533;-47
2024/01/02 02:01:45;;;;;;;1.90;0.40;;;8.40;99.90;;;;;;5025887;28;20564;-45
2024/01/02 02:04:15;;;;;;;1.70;0.50;;;8.40;99.90;;;;;;5011770;28;20456;-48
2024/01/02 02:06:43;;;;;;;1.20;0.50;;;8.40;99.90;;;;;;5007692;28;20564;-49
2024/01/02 02:09:11;;;;;;;1.50;0.50;;;8.40;99.90;;;;;;5011339;28;20860;-48
2024/01/02 02:11:40;;;;;;;2.03;0.60;;;8.40;99.90;;;;;;5010443;28;20678;-46
2024/01/02 02:14:10;;;;;;;1.13;0.47;;;8.40;99.90;;;;;;5007615;28;20838;-47
2024/01/02 02:16:42;;;;;;;1.13;0.47;;;8.40;99.90;;;;;;5010094;28;20526;-47
2024/01/02 02:19:11;;;;;;;1.53;0.40;;;8.40;99.90;;;;;;5024964;28;20960;-46
2024/01/02 02:21:39;;;;;;;1.92;0.50;;;8.40;99.90;;;;;;5010985;28;20531;-49
2024/01/02 02:24:08;;;;;;;1.20;0.50;;;8.40;99.90;;;;;;5024116;28;20289;-46
2024/01/02 02:26:36;;;;;;;1.50;0.60;;;8.40;99.90;;;;;;5008392;28;20526;-50
2024/01/02 02:29:05;;;;;;;1.10;0.43;;;8.40;99.90;;;;;;5006171;28;20219;-48
2024/01/02 02:31:33;;;;;;;1.20;0.40;;;8.40;99.90;;;;;;5009445;28;20536;-47
2024/01/02 02:34:01;;;;;;;1.15;0.50;;;8.40;99.90;;;;;;5009885;28;20947;-47
2024/01/02 02:36:29;;;;;;;3.43;0.50;;;8.40;99.90;;;;;;5008984;28;20662;-49
2024/01/02 02:38:57;;;;;;;1.15;0.43;;;8.40;99.90;;;;;;5005081;28;20498;-47
2024/01/02 02:41:26;;;;;;;1.42;0.50;;;8.40;99.90;;;;;;5008140;28;20610;-48
2024/01/02 02:43:55;;;;;;;1.00;0.40;;;8.40;99.90;;;;;;5006398;28;20206;-47
2024/01/02 02:46:23;;;;;;;1.98;0.50;;;8.40;99.90;;;;;;5005474;28;20193;-47
2024/01/02 02:48:52;;;;;;;1.20;0.67;;;8.40;99.90;;;;;;5006088;28;20683;-49
2024/01/02 02:51:20;;;;;;;2.03;0.40;;;8.40;99.90;;;;;;5008215;28;21018;-50
2024/01/02 02:53:49;;;;;;;1.30;0.60;;;8.40;99.90;;;;;;5008423;28;20441;-47
2024/01/02 02:56:17;;;;;;;1.52;0.60;;;8.40;99.90;;;;;;5009514;28;20284;-47
2024/01/02 02:58:48;;;;;;;1.02;0.40;;;8.40;99.90;;;;;;5007902;28;20626;-48
2024/01/02 03:01:22;;;;;;;1.15;0.40;;;8.40;99.90;;;;;;5010149;28;20365;-46
2024/01/02 03:03:51;;;;;;;1.27;0.70;;;8.40;99.90;;;;;;5009534;28;20209;-49
2024/01/02 03:06:20;;;;;;;1.00;0.37;;;8.40;99.90;;;;;;5009283;28;20232;-48
2024/01/02 03:08:48;;;;;;;1.90;0.75;;;8.40;99.90;;;;;;5008777;28;20529;-46
2024/01/02 03:11:16;;;;;;;2.00;0.50;;;8.40;99.90;;;;;;5009689;28;20213;-49
2024/01/02 03:13:44;;;;;;;1.27;0.40;;;8.40;99.90;;;;;;5006904;28;20980;-50
2024/01/02 03:16:16;;;;;;;1.25;0.50;;;8.40;99.90;;;;;;5009203;28;20429;-49
2024/01/02 03:18:44;;;;;;;1.50;0.70;;;8.40;99.90;;;;;;5007736;28;20194;-47
2024/01/02 03:21:12;;;;;;;4.05;0.45;;;8.40;99.90;;;;;;5009782;28;20451;-48
2024/01/02 03:23:40;;;;;;;1.10;0.50;;;8.40;99.90;;;;;;5007359;28;20201;-45
2024/01/02 03:26:11;;;;;;;1.65;0.50;;;8.40;99.90;;;;;;5009739;28;20440;-49
2024/01/02 03:28:39;;;;;;;1.30;0.50;;;8.40;99.90;;;;;;5006571;28;20210;-46
2024/01/02 03:31:07;;;;;;;1.40;0.50;;;8.40;99.90;;;;;;5009243;28;20873;-47
2024/01/02 03:33:37;;;;;;;1.53;0.70;;;8.40;99.90;;;;;;5008317;28;20512;-47
2024/01/02 03:36:11;;;;;;;1.10;0.33;;;8.40;99.90;;;;;;5008346;28;20463;-50
2024/01/02 03:38:40;;;;;;;1.00;0.40;;;8.40;99.90;;;;;;5006949;28;20437;-49
2024/01/02 03:41:08;;;;;;;1.15;0.45;;;8.40;99.90;;;;;;5007146;28;20210;-50
2024/01/02 03:43:36;;;;;;;1.10;0.40;;;8.40;99.90;;;;;;5004609;28;20232;-47
2024/01/02 03:46:04;;;;;;;1.73;0.50;;;8.40;99.90;;;;;;5018107;28;20195;-48
2024/01/02 03:48:32;;;;;;;0.97;0.30;;;8.40;99.90;;;;;;5007543;28;20535;-50
2024/01/02 03:51:02;;;;;;;1.20;0.53;;;8.40;99.90;;;;;;5007593;28;20507;-46
2024/01/02 03:53:31;;;;;;;1.10;0.40;;;8.40;99.90;;;;;;5006353;28;20480;-47
2024/01/02 03:56:00;;;;;;;0.93;0.33;;;8.40;99.90;;;;;;5008386;28;20462;-49
2024/01/02 03:58:30;;;;;;;1.43;0.40;;;8.40;99.90;;;;;;5006340;28;21047;-48
2024/01/02 04:00:59;;;;;;;1.47;0.43;;;8.40;99.90;;;;;;5009140;28;20457;-45
2024/01/02 04:03:28;;;;;;;1.60;0.50;;;8.40;99.90;;;;;;5007527;28;20479;-46
2024/01/02 04:05:56;;;;;;;1.23;0.40;;;8.40;99.90;;;;;;5009020;28;20437;-47
2024/01/02 04:08:26;;;;;;;1.13;0.40;;;8.40;99.90;;;;;;5007254;28;20480;-46
2024/01/02 04:10:54;;;;;;;1.00;0.30;;;8.40;99.90;;;;;;5008417;28;20464;-45
2024/01/02 04:13:23;;;;;;;0.90;0.40;;;8.40;99.90;;;;;;5003537;28;21018;-46
2024/01/02 04:15:51;;;;;;;1.30;0.40;;;8.40;99.90;;;;;;5009207;28;20876;-46
2024/01/02 04:18:19;;;;;;;1.07;0.40;;;8.40;99.90;;;;;;5008004;28;20464;-45
2024/01/02 04:20:48;;;;;;;1.00;0.40;;;8.40;99.90;;;;;;5008719;28;21335;-47
2024/01/02 04:23:16;;;;;;;1.30;0.50;;;8.40;99.90;;;;;;5005209;28;21011;-46
2024/01/02 04:25:45;;;;;;;1.30;0.53;;;8.40;99.90;;;;;;5008723;28;20202;-47
2024/01/02 04:28:13;;;;;;;1.10;0.50;;;8.40;99.90;;;;;;5005902;28;20491;-45
2024/01/02 04:30:41;;;;;;;1.35;0.50;;;8.40;99.90;;;;;;5005755;28;20500;-47
2024/01/02 04:33:09;;;;;;;1.35;0.50;;;8.30;99.90;;;;;;5023130;28;20308;-45
2024/01/02 04:35:38;;;;;;;1.10;0.40;;;8.40;99.90;;;;;;5008929;28;20197;-46
2024/01/02 04:38:06;;;;;;;1.03;0.40;;;8.40;99.90;;;;;;5005725;28;20335;-45
2024/01/02 04:40:35;;;;;;;1.52;0.40;;;8.40;99.90;;;;;;5008572;28;20462;-47
2024/01/02 04:43:04;;;;;;;0.95;0.38;;;8.40;99.90;;;;;;5006422;28;20434;-47
2024/01/02 04:45:32;;;;;;;2.03;0.60;;;8.40;99.90;;;;;;5007494;28;20205;-46
2024/01/02 04:48:00;;;;;;;1.15;0.40;;;8.40;99.90;;;;;;5007935;28;20209;-46
2024/01/02 04:50:28;;;;;;;1.10;0.40;;;8.40;99.90;;;;;;5008662;28;20652;-47
2024/01/02 04:52:56;;;;;;;1.20;0.33;;;8.40;99.90;;;;;;5006115;28;20730;-47
2024/01/02 04:55:24;;;;;;;2.00;0.38;;;8.40;99.90;;;;;;5007126;28;20433;-48
2024/01/02 04:57:52;;;;;;;1.10;0.40;;;8.40;99.90;;;;;;5006998;28;20214;-47
2024/01/02 05:00:22;;;;;;;1.20;0.40;;;8.40;99.90;;;;;;5006004;28;20460;-46
2024/01/02 05:02:50;;;;;;;1.00;0.40;;;8.40;99.90;;;;;;5007606;28;20602;-47
2024/01/02 05:05:19;;;;;;;1.52;0.50;;;8.40;99.90;;;;;;5008591;28;20461;-46
2024/01/02 05:07:47;;;;;;;1.10;0.40;;;8.40;99.90;;;;;;5005159;28;20272;-46
2024/01/02 05:10:16;;;;;;;1.10;0.40;;;8.40;99.90;;;;;;5011682;28;20546;-45
2024/01/02 05:12:45;;;;;;;0.90;0.30;;;8.40;99.90;;;;;;5011730;28;20226;-47
2024/01/02 05:15:13;;;;;;;1.40;0.47;;;8.40;99.90;;;;;;5008939;28;20202;-47
2024/01/02 05:17:43;;;;;;;0.93;0.37;;;8.40;99.90;;;;;;5012274;28;20461;-45
2024/01/02 05:20:11;;;;;;;1.00;0.40;;;8.40;99.90;;;;;;5012417;28;20452;-45
2024/01/02 05:22:40;;;;;;;1.00;0.40;;;8.40;99.90;;;;;;5007533;28;20222;-46
2024/01/02 05:25:09;;;;;;;1.00;0.40;;;8.40;99.90;;;;;;5010859;28;20938;-47
2024/01/02 05:27:37;;;;;;;0.90;0.30;;;8.40;99.90;;;;;;5011978;28;20254;-45
2024/01/02 05:30:08;;;;;;;1.00;0.40;;;8.40;99.90;;;;;;5009042;28;20213;-47
2024/01/02 05:32:36;;;;;;;1.10;0.40;;;8.40;99.90;;;;;;5011008;28;20226;-45
2024/01/02 05:35:07;;;;;;;1.00;0.30;;;8.40;99.90;;;;;;5010618;28;20675;-45
2024/01/02 05:37:35;;;;;;;1.00;0.40;;;8.40;99.90;;;;;;5004569;28;20240;-46
2024/01/02 05:40:05;;;;;;;2.70;0.40;;;8.40;99.90;;;;;;5008893;28;20452;-45
2024/01/02 05:42:33;;;;;;;0.90;0.40;;;8.40;99.90;;;;;;5009423;28;20470;-45
2024/01/02 05:45:01;;;;;;;0.90;0.30;;;8.40;99.90;;;;;;5007308;28;20457;-47
2024/01/02 05:47:29;;;;;;;0.90;0.30;;;8.40;99.90;;;;;;5009613;28;20225;-45
2024/01/02 05:49:57;;;;;;;1.05;0.40;;;8.40;99.90;;;;;;5009515;28;20276;-47
2024/01/02 05:52:27;;;;;;;1.30;0.37;;;8.40;99.90;;;;;;5006893;28;20214;-46
2024/01/02 05:54:55;;;;;;;0.90;0.30;;;8.40;99.90;;;;;;5010995;28;20451;-45
2024/01/02 05:57:23;;;;;;;1.67;0.40;;;8.40;99.90;;;;;;5010648;28;20467;-46
2024/01/02 05:59:52;;;;;;;1.20;0.40;;;8.40;99.90;;;;;;5008617;28;20329;-47
2024/01/02 06:02:20;;;;;;;1.17;0.40;;;8.40;99.90;;;;;;5010939;28;20560;-47
2024/01/02 06:04:48;;;;;;;1.00;0.30;;;8.40;99.90;;;;;;5010945;28;21015;-45
2024/01/02 06:07:16;;;;;;;3.30;0.35;;;8.40;99.90;;;;;;5003596;28;20474;-47
2024/01/02 06:09:45;;;;;;;1.08;0.32;;;8.40;99.90;;;;;;5011195;28;20279;-46
2024/01/02 06:12:13;;;;;;;0.90;0.30;;;8.40;99.90;;;;;;5011032;28;20232;-45
2024/01/02 06:14:41;;;;;;;0.90;0.30;;;8.40;99.90;;;;;;5008030;28;20449;-44
2024/01/02 06:17:11;;;;;;;1.38;0.40;;;8.40;99.90;;;;;;5010390;28;20691;-46
2024/01/02 06:19:40;;;;;;;1.03;0.30;;;8.40;99.90;;;;;;5007491;28;20230;-47
2024/01/02 06:22:08;;;;;;;0.90;0.30;;;8.40;99.90;;;;;;5008135;28;21012;-46
2024/01/02 06:24:36;;;;;;;0.90;0.30;;;8.40;99.90;;;;;;5008276;28;20578;-45
2024/01/02 06:27:06;;;;;;;1.00;0.40;;;8.40;99.90;;;;;;5010744;28;20456;-45
2024/01/02 06:29:34;;;;;;;1.73;0.40;;;8.40;99.90;;;;;;5008065;28;20209;-47
2024/01/02 06:32:03;;;;;;;0.90;0.40;;;8.40;99.90;;;;;;5010553;28;20213;-47
2024/01/02 06:34:32;;;;;;;0.80;0.20;;;8.40;99.90;;;;;;5010766;28;20198;-46
2024/01/02 06:37:00;;;;;;;1.30;0.30;;;8.40;99.90;;;;;;5006646;28;20489;-47
2024/01/02 06:39:29;;;;;;;0.93;0.30;;;8.40;99.90;;;;;;5010235;28;20193;-45
2024/01/02 06:41:57;;;;;;;1.00;0.40;;;8.40;99.90;;;;;;5009721;28;21052;-46
2024/01/02 06:44:26;;;;;;;0.90;0.35;;;8.40;99.90;;;;;;5007168;28;20201;-46
2024/01/02 06:46:55;;;;;;;0.90;0.30;;;8.40;99.90;;;;;;5009448;28;20218;-46
2024/01/02 06:49:26;;;;;;;0.90;0.30;;;8.40;99.90;;;;;;5009987;28;20459;-45
2024/01/02 06:51:54;;;;;;;0.90;0.30;;;8.40;99.90;;;;;;5007265;28;20233;-45
2024/01/02 06:54:22;;;;;;;0.90;0.30;;;8.40;99.90;;;;;;5008193;28;20194;-44
2024/01/02 06:56:50;;;;;;;0.90;0.30;;;8.40;99.90;;;;;;5009585;28;20229;-44
2024/01/02 06:59:21;;;;;;;1.25;0.50;;;8.40;99.90;;;;;;5007906;28;20449;-46
2024/01/02 07:01:51;;;;;;;1.20;0.37;;;8.40;99.90;;;;;;5009773;28;20268;-46
2024/01/02 07:04:19;;;;;;;0.80;0.20;;;8.40;99.90;;;;;;5010011;28;20881;-46
2024/01/02 07:06:47;;;;;;;1.00;0.40;;;8.40;99.90;;;;;;5007558;28;20511;-46
2024/01/02 07:09:16;;;;;;;1.00;0.30;;;8.40;99.90;;;;;;5010702;28;20527;-44
2024/01/02 07:11:44;;;;;;;0.90;0.30;;;8.40;99.90;;;;;;5009039;28;21025;-46
2024/01/02 07:14:12;;;;;;;0.90;0.30;;;8.40;99.90;;;;;;5007622;28;20441;-45
2024/01/02 07:16:41;;;;;;;1.00;0.30;;;8.40;99.90;;;;;;5009973;28;20233;-46
2024/01/02 07:19:10;;;;;;;1.13;0.40;;;8.40;99.90;;;;;;5005942;28;20192;-47
2024/01/02 07:21:38;;;;;;;0.90;0.30;;;8.40;99.90;;;;;;5009577;28;20312;-46
2024/01/02 07:24:06;;;;;;;1.30;0.40;;;8.40;99.90;;;;;;5005312;28;20194;-45
2024/01/02 07:26:34;;;;;;;1.87;0.50;;;8.40;99.90;;;;;;5009441;28;20287;-46
2024/01/02 07:29:03;;;;;;;0.90;0.32;;;8.40;99.90;;;;;;5006469;28;20531;-46
2024/01/02 07:31:32;;;;;;;0.90;0.30;;;8.40;99.90;;;;;;5008304;28;20232;-45
2024/01/02 07:34:00;;;;;;;0.90;0.20;;;8.50;99.90;;;;;;5008167;28;20749;-45
2024/01/02 07:36:30;;;;;;;1.00;0.30;;;8.50;99.90;;;;;;5008339;28;20468;-47
2024/01/02 07:38:59;;;;;;;0.90;0.30;;;8.50;99.90;;;;;;5005033;28;20452;-49
2024/01/02 07:41:27;;;;;;;0.80;0.20;;;8.50;99.90;;;;;;5007893;28;20992;-46
2024/01/02 07:43:55;;;;;;;1.30;0.40;;;8.50;99.90;;;;;;5020837;28;20194;-49
2024/01/02 07:46:24;;;;;;;1.00;0.30;;;8.40;99.90;;;;;;5018751;28;20205;-46
2024/01/02 07:48:52;;;;;;;0.90;0.30;;;8.50;99.90;;;;;;5005618;28;20608;-47
2024/01/02 07:51:21;;;;;;;1.33;0.30;;;8.50;99.90;;;;;;5006221;28;20209;-50
2024/01/02 07:53:51;;;;;;;0.90;0.30;;;8.50;99.90;;;;;;5008956;28;20209;-46
2024/01/02 07:56:20;;;;;;;1.47;0.53;;;8.50;99.90;;;;;;5008406;28;20440;-47
2024/01/02 07:58:49;;;;;;;0.90;0.30;;;8.50;99.90;;;;;;5006954;28;20487;-47
2024/01/02 08:01:18;;;;;;;0.90;0.40;;;8.50;99.90;;;;;;5008765;28;20251;-47
2024/01/02 08:03:46;;;;;;;1.00;0.30;;;8.50;99.90;;;;;;5008915;28;20289;-47
2024/01/02 08:06:14;;;;;;;0.90;0.30;;;8.50;99.90;;;;;;5008933;28;20884;-45
2024/01/02 08:08:42;;;;;;;0.90;0.30;;;8.50;99.90;;;;;;5006693;28;20197;-47
2024/01/02 08:11:12;;;;;;;0.90;0.30;;;8.50;99.90;;;;;;5009097;28;20549;-46
2024/01/02 08:13:41;;;;;;;0.90;0.30;;;8.50;99.90;;;;;;5003493;28;20934;-47
2024/01/02 08:16:09;;;;;;;0.90;0.30;;;8.50;99.90;;;;;;5010433;28;20786;-47
2024/01/02 08:18:41;;;;;;;0.90;0.30;;;8.50;99.90;;;;;;5009053;28;20446;-46
2024/01/02 08:21:09;;;;;;;0.90;0.30;;;8.50;99.90;;;;;;5004743;28;20226;-46
2024/01/02 08:23:38;;;;;;;1.10;0.40;;;8.50;99.90;;;;;;5006505;28;20198;-45
2024/01/02 08:26:13;;;;;;;0.90;0.30;;;8.50;99.90;;;;;;5008235;28;21189;-47
2024/01/02 08:28:42;;;;;;;0.90;0.30;;;8.50;99.90;;;;;;5003135;28;20557;-45
2024/01/02 08:31:10;;;;;;;0.90;0.30;;;8.50;99.90;;;;;;5008385;28;20672;-46
2024/01/02 08:33:38;;;;;;;0.90;0.30;;;8.50;99.90;;;;;;5006965;28;20421;-44
2024/01/02 08:36:09;;;;;;;0.90;0.30;;;8.50;99.90;;;;;;5005509;28;20508;-45
2024/01/02 08:38:37;;;;;;;1.00;0.30;;;8.50;99.90;;;;;;5007139;28;20440;-45
2024/01/02 08:41:05;;;;;;;1.10;0.30;;;8.50;99.90;;;;;;5006751;28;20308;-45
2024/01/02 08:43:35;;;;;;;0.90;0.30;;;8.50;99.90;;;;;;5004422;28;20295;-45
2024/01/02 08:46:03;;;;;;;1.00;0.30;;;8.50;99.90;;;;;;5011537;28;20221;-45
2024/01/02 08:48:31;;;;;;;1.00;0.30;;;8.50;99.90;;;;;;5010560;28;20260;-47
2024/01/02 08:51:00;;;;;;;1.02;0.30;;;8.50;99.90;;;;;;5010673;28;20221;-47
2024/01/02 08:53:28;;;;;;;0.90;0.30;;;8.50;99.90;;;;;;5009724;28;20213;-45
2024/01/02 08:55:57;;;;;;;1.10;0.30;;;8.50;99.90;;;;;;5012327;28;20212;-45
2024/01/02 08:58:28;;;;;;;0.90;0.30;;;8.50;99.90;;;;;;5006596;28;20284;-44
2024/01/02 09:00:58;;;;;;;0.90;0.30;;;8.50;99.90;;;;;;5012300;28;20316;-46
2024/01/02 09:03:28;;;;;;;0.98;0.30;;;8.50;99.90;;;;;;5010519;28;20512;-45
2024/01/02 09:05:56;;;;;;;0.95;0.32;;;8.60;99.90;;;;;;5012817;28;20206;-45
2024/01/02 09:08:24;;;;;;;0.90;0.30;;;8.50;99.90;;;;;;5004034;28;20230;-45
2024/01/02 09:10:52;;;;;;;1.10;0.30;;;8.50;99.90;;;;;;5012079;28;20495;-47
2024/01/02 09:13:20;;;;;;;0.90;0.30;;;8.50;99.90;;;;;;5009140;28;21013;-45
2024/01/02 09:15:49;;;;;;;0.90;0.30;;;8.50;99.90;;;;;;5011322;28;20926;-45
2024/01/02 09:18:18;;;;;;;0.90;0.30;;;8.50;99.90;;;;;;5011134;28;20629;-45
2024/01/02 09:20:47;;;;;;;0.90;0.28;;;8.50;99.90;;;;;;5012518;28;20494;-44
2024/01/02 09:23:15;;;;;;;1.08;0.40;;;8.50;99.90;;;;;;5008336;28;20300;-46
2024/01/02 09:25:47;;;;;;;1.10;0.33;;;8.50;99.90;;;;;;5011746;28;20194;-51
2024/01/02 09:28:16;;;;;;;1.00;0.40;;;8.50;99.90;;;;;;5009073;28;20845;-49
2024/01/02 09:30:48;;;;;;;0.90;0.30;;;8.50;99.90;;;;;;5011071;28;20213;-47
2024/01/02 09:33:18;;;;;;;0.90;0.20;;;8.50;99.90;;;;;;5011757;28;20225;-47
2024/01/02 09:35:46;;;;;;;0.90;0.30;;;8.50;99.90;;;;;;5010467;28;20205;-48
2024/01/02 09:38:15;;;;;;;1.10;0.43;;;8.50;99.90;;;;;;5023568;28;20868;-49
2024/01/02 09:40:57;;;;;;;1.00;0.30;;;8.50;99.90;;;;;;5008898;28;20291;-48
2024/01/02 09:43:34;;;;;;;0.90;0.30;;;8.50;99.90;;;;;;5007085;28;20635;-46
2024/01/02 09:46:10;;;;;;;1.00;0.30;;;8.50;99.90;;;;;;5011703;28;20622;-45
2024/01/02 09:48:54;;;;;;;0.90;0.30;;;8.50;99.90;;;;;;5011146;28;20233;-44
2024/01/02 09:51:32;;;;;;;0.90;0.30;;;8.50;99.90;;;;;;5008892;28;20803;-45
2024/01/02 09:54:14;;;;;;;0.97;0.30;;;8.50;99.90;;;;;;5008341;28;20814;-45
2024/01/02 09:56:49;;;;;;;0.90;0.30;;;8.50;99.90;;;;;;5006656;28;20470;-45
2024/01/02 09:59:39;;;;;;;0.90;0.30;;;8.50;99.90;;;;;;5008856;28;20447;-44
2024/01/02 10:02:24;;;;;;;0.90;0.30;;;8.50;99.90;;;;;;5010124;28;20461;-46
2024/01/02 10:05:08;;;;;;;0.90;0.30;;;8.50;99.90;;;;;;5008779;28;20417;-45
2024/01/02 10:08:00;;;;;;;1.00;0.30;;;8.50;99.90;;;;;;5007946;28;20990;-46
2024/01/02 10:10:36;;;;;;;1.00;0.30;;;8.50;99.90;;;;;;5009733;28;20299;-46
2024/01/02 10:13:22;;;;;;;1.17;0.35;;;8.50;99.90;;;;;;5008584;28;20471;-45
2024/01/02 10:15:59;;;;;;;0.90;0.30;;;8.50;99.90;;;;;;5008138;28;20198;-45
2024/01/02 10:18:36;;;;;;;0.90;0.30;;;8.50;99.90;;;;;;5010180;28;20303;-44
2024/01/02 10:21:13;;;;;;;0.90;0.30;;;8.50;99.90;;;;;;5006373;28;20562;-45
2024/01/02 10:23:53;;;;;;;1.00;0.40;;;8.50;99.90;;;;;;5006742;28;20891;-45
2024/01/02 10:26:24;;;;;;;1.30;0.40;;;8.50;99.90;;;;;;5008305;28;20770;-45
2024/01/02 10:29:00;;;;;;;1.00;0.30;;;8.50;99.90;;;;;;5003725;28;20448;-45
2024/01/02 10:31:40;;;;;;;0.90;0.30;;;8.50;99.90;;;;;;5007510;28;20487;-45
2024/01/02 10:34:22;;;;;;;1.00;0.30;;;8.50;99.90;;;;;;5009392;28;20828;-45
2024/01/02 10:36:57;;;;;;;1.10;0.40;;;8.50;99.90;;;;;;5010690;28;20472;-44
2024/01/02 10:39:34;;;;;;;0.90;0.30;;;8.50;99.90;;;;;;5009215;28;20442;-45
2024/01/02 10:42:19;;;;;;;1.10;0.40;;;8.50;99.90;;;;;;5005649;28;20463;-45
2024/01/02 10:44:57;;;;;;;1.07;0.37;;;8.50;99.90;;;;;;5006441;28;20437;-46
2024/01/02 10:47:35;;;;;;;0.93;0.30;;;8.50;99.90;;;;;;5010239;28;20460;-45
2024/01/02 10:50:05;;;;;;;1.10;0.40;;;8.50;99.90;;;;;;5010247;28;20906;-45
2024/01/02 10:52:42;;;;;;;1.00;0.40;;;8.50;99.90;;;;;;5008365;28;20484;-46
2024/01/02 10:55:19;;;;;;;0.90;0.30;;;8.50;99.90;;;;;;5010933;28;20516;-46
2024/01/02 10:57:56;;;;;;;1.10;0.40;;;8.50;99.90;;;;;;5005408;28;20461;-46
2024/01/02 11:00:29;;;;;;;1.10;0.40;;;8.60;99.90;;;;;;5008934;28;20476;-46
2024/01/02 11:03:04;;;;;;;1.10;0.30;;;8.50;99.90;;;;;;5009694;28;20218;-44
2024/01/02 11:05:38;;;;;;;1.00;0.30;;;8.50;99.90;;;;;;5009470;28;20300;-45
2024/01/02 11:08:20;;;;;;;1.07;0.40;;;8.50;99.90;;;;;;5006142;28;20472;-45
2024/01/02 11:10:57;;;;;;;0.90;0.40;;;8.50;99.90;;;;;;5001575;28;20678;-44
2024/01/02 11:13:27;;;;;;;1.10;0.40;;;8.50;99.90;;;;;;5007172;28;20472;-45
2024/01/02 11:15:59;;;;;;;1.10;0.33;;;8.50;99.90;;;;;;5010149;28;20487;-44
2024/01/02 11:18:31;;;;;;;1.00;0.43;;;8.50;99.90;;;;;;5010081;28;20537;-44
2024/01/02 11:21:02;;;;;;;1.00;0.30;;;8.50;99.90;;;;;;5009802;28;20461;-44
2024/01/02 11:23:36;;;;;;;1.00;0.30;;;8.60;99.90;;;;;;5005537;28;20767;-43
2024/01/02 11:26:11;;;;;;;1.23;0.40;;;8.60;99.90;;;;;;5010031;28;20595;-44
2024/01/02 11:28:43;;;;;;;0.90;0.30;;;8.50;99.90;;;;;;5003665;28;20217;-43
2024/01/02 11:31:13;;;;;;;0.95;0.35;;;8.50;99.90;;;;;;5009895;28;20492;-44
2024/01/02 11:33:53;;;;;;;1.00;0.43;;;8.50;99.90;;;;;;5004922;28;20228;-46
2024/01/02 11:36:28;;;;;;;1.40;0.40;;;8.50;99.90;;;;;;5004903;28;20449;-48
2024/01/02 11:39:05;;;;;;;1.10;0.40;;;8.50;99.90;;;;;;5008030;28;20433;-47
2024/01/02 11:41:53;;;;;;;1.00;0.37;;;8.60;99.90;;;;;;5007593;28;20226;-51
2024/01/02 11:44:32;;;;;;;0.90;0.40;;;8.60;99.90;;;;;;5005313;28;20437;-46
2024/01/02 11:47:03;;;;;;;1.17;0.50;;;8.60;99.90;;;;;;5005931;28;20400;-47
2024/01/02 11:49:39;;;;;;;0.90;0.30;;;8.60;99.90;;;;;;5007821;28;20215;-48
2024/01/02 11:52:15;;;;;;;0.90;0.40;;;8.60;99.90;;;;;;5006738;28;20472;-47
2024/01/02 11:54:54;;;;;;;0.90;0.40;;;8.60;99.90;;;;;;5005246;28;20464;-48
2024/01/02 11:57:46;;;;;;;1.00;0.47;;;8.60;99.90;;;;;;5023523;28;20876;-48
2024/01/02 12:00:23;;;;;;;0.90;0.30;;;8.60;99.90;;;;;;5004361;28;21120;-49
2024/01/02 12:03:00;;;;;;;1.30;0.30;;;8.60;99.90;;;;;;5007485;28;21052;-49
2024/01/02 12:05:38;;;;;;;1.00;0.40;;;8.60;99.90;;;;;;5009326;28;20429;-45
2024/01/02 12:08:11;;;;;;;1.20;0.50;;;8.60;99.90;;;;;;5005954;28;20484;-45
2024/01/02 12:10:47;;;;;;;1.17;0.40;;;8.60;99.90;;;;;;5009230;28;20777;-47
2024/01/02 12:13:26;;;;;;;0.90;0.30;;;8.60;99.90;;;;;;5005550;28;20569;-46
2024/01/02 12:15:55;;;;;;;1.00;0.30;;;8.60;99.90;;;;;;5009018;28;20997;-46
2024/01/02 12:18:26;;;;;;;0.90;0.30;;;8.60;99.90;;;;;;5008501;28;20476;-46
2024/01/02 12:20:58;;;;;;;0.97;0.30;;;8.60;99.90;;;;;;5009064;28;20452;-48
2024/01/02 12:23:27;;;;;;;0.97;0.37;;;8.60;99.90;;;;;;5004571;28;20464;-48
2024/01/02 12:26:02;;;;;;;1.00;0.40;;;8.60;99.90;;;;;;5009058;28;20430;-48
2024/01/02 12:28:34;;;;;;;0.90;0.30;;;8.60;99.90;;;;;;5006399;28;20859;-47
2024/01/02 12:31:11;;;;;;;1.23;0.37;;;8.60;99.90;;;;;;5003971;28;20449;-48
2024/01/02 12:33:48;;;;;;;1.00;0.30;;;8.60;99.90;;;;;;5006135;28;21022;-45
2024/01/02 12:36:26;;;;;;;1.07;0.40;;;8.60;99.90;;;;;;5007977;28;20460;-46
2024/01/02 12:39:00;;;;;;;1.20;0.40;;;8.60;99.90;;;;;;5006746;28;20537;-46
2024/01/02 12:41:35;;;;;;;0.90;0.30;;;8.60;99.90;;;;;;5012300;28;20461;-45
2024/01/02 12:44:06;;;;;;;2.80;0.50;;;8.60;99.90;;;;;;5005450;28;20440;-46
2024/01/02 12:46:46;;;;;;;1.00;0.40;;;8.60;99.90;;;;;;5008225;28;20488;-45
2024/01/02 12:49:17;;;;;;;0.90;0.30;;;8.60;99.90;;;;;;5003428;28;20441;-46
2024/01/02 12:51:47;;;;;;;1.00;0.30;;;8.60;99.90;;;;;;5003303;28;20465;-46
2024/01/02 12:54:19;;;;;;;1.40;0.50;;;8.60;99.90;;;;;;5003449;28;20349;-45
2024/01/02 12:56:54;;;;;;;1.00;0.50;;;8.60;99.90;;;;;;5008466;28;20464;-46
2024/01/02 12:59:28;;;;;;;0.90;0.30;;;8.60;99.90;;;;;;5003700;28;20527;-46
2024/01/02 13:01:56;;;;;;;1.00;0.40;;;8.60;99.90;;;;;;5008174;28;20496;-45
2024/01/02 13:04:25;;;;;;;0.90;0.30;;;8.60;99.90;;;;;;5006460;28;20922;-46
2024/01/02 13:06:53;;;;;;;1.00;0.30;;;8.60;99.90;;;;;;5009610;28;21035;-45
2024/01/02 13:09:22;;;;;;;1.10;0.30;;;8.60;99.90;;;;;;5014635;28;20503;-45
2024/01/02 13:11:51;;;;;;;1.55;0.47;;;8.60;99.90;;;;;;5015090;28;20473;-45
2024/01/02 13:14:19;;;;;;;4.50;0.50;;;8.60;99.90;;;;;;5008020;28;20210;-45